Time;durP1;ratioP1;P1;durP2;ratioP2;P2;SDS_P1;SDS_P2;PMS_P1;PMS_P2;Temp;Humidity;BMP_temperature;BMP_pressure;BME280_temperature;BME280_humidity;BME280_pressure;Samples;Min_cycle;Max_cycle;Signal;HPM_P1;HPM_P2
2021/07/06 00:00:35;;;;;;;27.33;16.10;;;;;;;18.53;60.17;98609.63;125694;1093;103084;-76
2021/07/06 00:03:23;;;;;;;25.93;16.60;;;;;;;18.53;60.74;98615.02;125682;1096;102919;-76
2021/07/06 00:05:54;;;;;;;25.93;14.83;;;;;;;18.53;60.38;98612.33;125721;1095;102997;-75
2021/07/06 00:08:25;;;;;;;26.73;15.47;;;;;;;18.56;60.37;98621.90;125662;1094;103026;-74
2021/07/06 00:10:53;;;;;;;25.63;15.00;;;;;;;18.58;60.91;98618.03;125692;1093;102906;-75
2021/07/06 00:13:22;;;;;;;23.47;13.33;;;;;;;18.62;60.66;98617.69;125662;1093;103018;-75
2021/07/06 00:15:50;;;;;;;24.67;13.13;;;;;;;18.64;61.03;98608.41;125698;1093;103361;-75
2021/07/06 00:18:21;;;;;;;21.23;13.23;;;;;;;18.67;61.09;98608.06;125699;1093;103087;-74
2021/07/06 00:20:50;;;;;;;22.40;13.33;;;;;;;18.68;60.89;98607.05;125697;1093;103034;-75
2021/07/06 00:23:18;;;;;;;20.65;12.85;;;;;;;18.71;60.79;98604.00;125725;1097;103100;-75
2021/07/06 00:25:46;;;;;;;20.23;11.93;;;;;;;18.73;60.81;98601.15;125685;1093;103023;-74
2021/07/06 00:28:15;;;;;;;21.67;12.00;;;;;;;18.74;60.91;98600.95;125641;1093;103028;-75
2021/07/06 00:30:43;;;;;;;21.80;12.30;;;;;;;18.77;60.98;98607.01;125704;1095;102913;-74
2021/07/06 00:33:14;;;;;;;20.87;11.63;;;;;;;18.80;61.40;98612.88;125675;1097;102913;-73
2021/07/06 00:35:42;;;;;;;19.97;11.47;;;;;;;18.82;61.36;98618.10;125727;1096;102940;-75
2021/07/06 00:38:16;;;;;;;21.73;12.07;;;;;;;18.84;61.06;98616.08;125687;1093;103036;-75
2021/07/06 00:40:44;;;;;;;22.13;13.10;;;;;;;18.87;61.19;98621.94;125661;1093;102997;-75
2021/07/06 00:43:13;;;;;;;24.37;12.97;;;;;;;18.90;61.20;98620.77;125699;1093;102988;-74
2021/07/06 00:45:41;;;;;;;22.27;12.20;;;;;;;18.90;61.14;98623.45;125676;1094;103188;-74
2021/07/06 00:48:10;;;;;;;22.67;13.50;;;;;;;18.90;61.29;98621.58;125707;1093;103435;-75
2021/07/06 00:50:40;;;;;;;23.83;12.70;;;;;;;18.84;61.48;98621.46;125716;1092;102976;-76
2021/07/06 00:53:08;;;;;;;24.07;13.90;;;;;;;18.72;61.19;98623.71;125622;1093;103041;-76
2021/07/06 00:55:43;;;;;;;22.87;13.63;;;;;;;18.66;61.24;98619.84;125713;1092;102916;-76
2021/07/06 00:58:15;;;;;;;21.93;12.97;;;;;;;18.65;61.79;98623.55;125647;1093;103095;-76
2021/07/06 01:00:46;;;;;;;22.83;12.90;;;;;;;18.63;61.44;98625.58;125682;1095;102926;-75
2021/07/06 01:03:17;;;;;;;24.63;12.77;;;;;;;18.65;61.90;98628.11;125684;1093;103138;-76
2021/07/06 01:05:49;;;;;;;21.90;12.53;;;;;;;18.66;61.94;98630.62;125615;1093;103142;-75
2021/07/06 01:08:17;;;;;;;22.63;12.33;;;;;;;18.68;61.58;98627.77;125663;1093;103009;-76
2021/07/06 01:10:46;;;;;;;25.70;12.70;;;;;;;18.70;62.04;98631.95;126041;1093;103066;-76
2021/07/06 01:13:15;;;;;;;20.03;12.37;;;;;;;18.70;61.63;98628.44;125979;1090;103151;-76
2021/07/06 01:15:43;;;;;;;21.47;11.63;;;;;;;18.70;61.66;98636.52;126494;1093;102933;-76
2021/07/06 01:18:17;;;;;;;22.10;11.97;;;;;;;18.71;62.07;98632.81;125684;1097;103061;-77
2021/07/06 01:20:51;;;;;;;20.10;11.60;;;;;;;18.71;61.92;98627.42;125704;1093;102999;-77
2021/07/06 01:23:28;;;;;;;20.90;12.30;;;;;;;18.72;61.84;98632.62;125675;1093;102913;-76
2021/07/06 01:26:09;;;;;;;22.10;11.40;;;;;;;18.72;61.96;98629.92;125715;1095;103034;-77
2021/07/06 01:28:41;;;;;;;19.53;11.13;;;;;;;18.73;61.73;98630.78;125731;1093;103134;-76
2021/07/06 01:31:10;;;;;;;24.20;12.03;;;;;;;18.72;61.98;98629.92;125668;1093;103403;-76
2021/07/06 01:33:41;;;;;;;23.23;11.40;;;;;;;18.71;62.13;98630.94;125681;1093;103032;-77
2021/07/06 01:36:09;;;;;;;22.63;12.20;;;;;;;18.70;62.10;98628.44;125642;1093;102908;-78
2021/07/06 01:38:44;;;;;;;23.47;12.27;;;;;;;18.70;62.24;98631.95;125705;1094;102932;-77
2021/07/06 01:41:12;;;;;;;20.67;11.47;;;;;;;18.68;61.86;98630.46;125708;1093;103023;-77
2021/07/06 01:43:40;;;;;;;22.00;11.93;;;;;;;18.66;61.96;98636.00;125634;1095;103418;-76
2021/07/06 01:46:09;;;;;;;23.30;11.67;;;;;;;18.64;61.91;98631.82;125702;1093;103033;-76
2021/07/06 01:48:40;;;;;;;21.43;11.77;;;;;;;18.62;61.87;98633.84;125671;1093;103032;-77
2021/07/06 01:51:11;;;;;;;22.53;11.87;;;;;;;18.60;61.96;98632.17;125676;1093;102929;-75
2021/07/06 01:53:39;;;;;;;21.10;12.13;;;;;;;18.59;61.98;98624.25;125692;1093;103028;-74
2021/07/06 01:56:08;;;;;;;20.77;10.50;;;;;;;18.58;62.41;98626.11;125667;1097;102980;-75
2021/07/06 01:58:36;;;;;;;21.57;12.13;;;;;;;18.58;62.40;98630.64;125726;1093;102994;-75
2021/07/06 02:01:05;;;;;;;23.10;11.17;;;;;;;18.58;62.23;98633.34;125709;1092;103031;-76
2021/07/06 02:03:36;;;;;;;21.77;11.63;;;;;;;18.59;62.13;98637.71;125729;1095;102915;-77
2021/07/06 02:06:04;;;;;;;25.03;11.57;;;;;;;18.60;62.14;98637.55;125700;1093;103097;-78
2021/07/06 02:08:32;;;;;;;21.67;11.90;;;;;;;18.62;62.22;98637.37;125669;1093;103132;-77
2021/07/06 02:11:01;;;;;;;23.53;12.67;;;;;;;18.63;62.32;98641.73;125685;1094;103032;-77
2021/07/06 02:13:29;;;;;;;21.80;11.80;;;;;;;18.63;62.65;98646.30;125699;1093;102920;-76
2021/07/06 02:15:59;;;;;;;20.80;11.27;;;;;;;18.49;61.86;98647.88;125721;1093;103035;-77
2021/07/06 02:18:32;;;;;;;25.47;13.00;;;;;;;18.33;62.47;98644.20;125672;1093;103007;-76
2021/07/06 02:21:05;;;;;;;22.83;12.20;;;;;;;18.24;62.48;98637.14;125628;1093;103122;-76
2021/07/06 02:23:36;;;;;;;22.17;11.53;;;;;;;18.17;62.51;98644.22;125708;1093;103368;-77
2021/07/06 02:26:09;;;;;;;24.50;12.50;;;;;;;18.06;62.69;98646.28;125667;1093;103342;-76
2021/07/06 02:28:38;;;;;;;23.57;13.07;;;;;;;18.06;62.33;98645.42;125686;1093;102955;-77
2021/07/06 02:31:06;;;;;;;28.20;12.53;;;;;;;18.04;62.53;98656.38;125696;1091;103012;-77
2021/07/06 02:33:35;;;;;;;21.50;11.60;;;;;;;18.04;62.57;98650.99;125660;1093;103146;-77
2021/07/06 02:36:09;;;;;;;20.60;10.43;;;;;;;18.05;62.67;98651.81;125721;1093;102909;-77
2021/07/06 02:38:39;;;;;;;21.73;12.37;;;;;;;18.03;62.51;98646.63;125665;1094;102977;-77
2021/07/06 02:41:09;;;;;;;23.80;11.90;;;;;;;18.02;62.42;98657.54;125710;1093;102934;-74
2021/07/06 02:43:40;;;;;;;22.47;11.83;;;;;;;17.99;62.57;98659.55;125707;1093;103019;-76
2021/07/06 02:46:10;;;;;;;19.83;10.73;;;;;;;17.99;62.64;98667.63;125679;1093;103000;-77
2021/07/06 02:48:41;;;;;;;20.75;10.88;;;;;;;17.98;63.10;98665.09;125690;1093;102935;-77
2021/07/06 02:51:16;;;;;;;19.53;10.43;;;;;;;17.97;62.82;98664.23;125675;1093;102943;-77
2021/07/06 02:53:47;;;;;;;21.87;10.70;;;;;;;17.99;62.75;98669.49;125696;1093;103065;-77
2021/07/06 02:56:15;;;;;;;19.97;10.30;;;;;;;17.97;62.75;98676.86;125700;1092;103012;-77
2021/07/06 02:58:43;;;;;;;22.60;10.90;;;;;;;17.98;62.70;98675.85;125665;1097;103058;-78
2021/07/06 03:01:12;;;;;;;19.27;10.43;;;;;;;17.99;62.75;98675.70;125720;1093;102981;-77
2021/07/06 03:03:42;;;;;;;19.60;10.50;;;;;;;18.01;63.30;98664.78;125686;1093;102916;-77
2021/07/06 03:06:14;;;;;;;20.10;10.13;;;;;;;18.04;62.75;98671.66;125686;1093;103028;-76
2021/07/06 03:08:42;;;;;;;19.03;10.57;;;;;;;18.04;62.75;98677.05;125682;1093;104445;-77
2021/07/06 03:11:11;;;;;;;21.43;11.53;;;;;;;18.04;63.02;98672.52;125673;1093;103034;-78
2021/07/06 03:13:44;;;;;;;17.43;10.07;;;;;;;18.06;63.14;98673.19;125697;1096;103001;-75
2021/07/06 03:16:12;;;;;;;26.33;10.73;;;;;;;18.07;63.04;98674.02;125689;1095;103017;-76
2021/07/06 03:18:43;;;;;;;19.40;10.37;;;;;;;18.09;63.20;98677.38;125717;1096;102991;-76
2021/07/06 03:21:12;;;;;;;20.17;9.77;;;;;;;18.09;63.46;98677.38;125698;1096;102911;-76
2021/07/06 03:23:40;;;;;;;19.70;9.70;;;;;;;18.11;63.15;98676.22;125654;1096;103097;-75
2021/07/06 03:26:08;;;;;;;21.30;9.87;;;;;;;18.14;63.29;98675.02;125706;1096;102911;-77
2021/07/06 03:28:38;;;;;;;17.90;9.93;;;;;;;18.14;63.49;98685.79;125664;1096;103078;-77
2021/07/06 03:31:08;;;;;;;20.17;10.40;;;;;;;18.16;63.57;98689.16;125706;1096;102908;-77
2021/07/06 03:33:36;;;;;;;19.40;10.07;;;;;;;18.20;63.12;98689.64;125716;1095;102947;-76
2021/07/06 03:36:07;;;;;;;22.03;10.60;;;;;;;18.22;63.28;98691.17;125717;1096;103062;-76
2021/07/06 03:38:35;;;;;;;22.80;10.83;;;;;;;18.26;63.18;98688.97;125716;1096;102995;-76
2021/07/06 03:41:04;;;;;;;19.47;9.80;;;;;;;18.29;63.65;98692.17;125664;1096;103364;-76
2021/07/06 03:43:32;;;;;;;18.20;10.13;;;;;;;18.32;63.26;98704.44;125720;1093;102994;-76
2021/07/06 03:46:00;;;;;;;21.53;10.83;;;;;;;18.35;63.71;98697.86;125747;1093;102923;-76
2021/07/06 03:48:31;;;;;;;21.60;10.30;;;;;;;18.38;63.30;98700.21;125676;1093;103687;-77
2021/07/06 03:51:00;;;;;;;19.90;10.37;;;;;;;18.41;63.38;98699.88;125686;1093;103003;-78
2021/07/06 03:53:28;;;;;;;22.00;11.03;;;;;;;18.44;63.39;98702.22;125675;1093;103061;-76
2021/07/06 03:55:57;;;;;;;20.43;10.57;;;;;;;18.47;63.38;98701.06;125679;1093;103035;-75
2021/07/06 03:58:25;;;;;;;21.50;10.40;;;;;;;18.48;63.84;98703.56;125670;1092;103090;-75
2021/07/06 04:00:53;;;;;;;18.10;10.30;;;;;;;18.52;63.78;98712.16;125666;1093;103028;-76
2021/07/06 04:03:25;;;;;;;20.17;11.07;;;;;;;18.55;63.44;98711.78;125711;1093;102934;-76
2021/07/06 04:05:59;;;;;;;20.90;10.87;;;;;;;18.58;63.90;98708.75;125649;1093;102903;-78
2021/07/06 04:08:30;;;;;;;21.57;11.57;;;;;;;18.62;63.54;98710.09;125645;1093;103087;-75
2021/07/06 04:10:59;;;;;;;21.93;11.30;;;;;;;18.66;63.65;98711.42;125697;1093;102911;-79
2021/07/06 04:13:27;;;;;;;20.83;10.70;;;;;;;18.71;63.59;98716.31;125641;1094;103172;-78
2021/07/06 04:15:55;;;;;;;20.60;11.10;;;;;;;18.73;63.69;98714.30;125684;1093;103118;-79
2021/07/06 04:18:24;;;;;;;21.20;11.70;;;;;;;18.79;64.07;98721.66;125658;1093;102913;-81
2021/07/06 04:20:52;;;;;;;21.23;11.13;;;;;;;18.83;63.66;98720.30;125673;1093;103152;-77
2021/07/06 04:23:21;;;;;;;21.47;11.40;;;;;;;18.88;63.69;98720.63;125713;1093;103031;-79
2021/07/06 04:25:49;;;;;;;23.73;12.17;;;;;;;18.95;64.08;98725.31;125610;1096;103060;-81
2021/07/06 04:28:20;;;;;;;21.33;11.67;;;;;;;19.00;63.80;98726.50;125785;1096;102935;-81
2021/07/06 04:30:48;;;;;;;22.33;11.60;;;;;;;19.07;64.29;98726.66;125645;1096;103428;-80
2021/07/06 04:33:17;;;;;;;21.30;11.47;;;;;;;19.14;64.18;98732.18;125690;1096;102913;-76
2021/07/06 04:35:45;;;;;;;21.47;10.80;;;;;;;19.19;64.26;98729.80;125678;1096;103093;-76
2021/07/06 04:38:16;;;;;;;19.57;10.90;;;;;;;19.25;64.16;98733.64;125651;1096;103031;-76
2021/07/06 04:40:47;;;;;;;21.53;11.43;;;;;;;19.29;64.40;98725.04;125674;1096;103368;-77
2021/07/06 04:43:16;;;;;;;20.77;11.33;;;;;;;19.35;63.85;98726.17;125674;1096;102950;-75
2021/07/06 04:45:44;;;;;;;20.77;11.17;;;;;;;19.40;64.44;98731.03;125697;1094;103002;-82
2021/07/06 04:48:12;;;;;;;23.37;11.23;;;;;;;19.43;64.27;98726.14;125839;1093;102996;-76
2021/07/06 04:50:41;;;;;;;22.63;11.43;;;;;;;19.49;64.18;98722.73;125640;1092;103016;-75
2021/07/06 04:53:09;;;;;;;23.80;11.95;;;;;;;19.56;64.32;98730.12;125706;1093;103004;-75
2021/07/06 04:55:38;;;;;;;20.40;11.37;;;;;;;19.61;64.28;98736.65;125678;1093;102940;-75
2021/07/06 04:58:09;;;;;;;22.17;11.17;;;;;;;19.67;64.27;98734.26;125645;1093;102920;-76
2021/07/06 05:00:37;;;;;;;21.90;12.13;;;;;;;19.71;64.18;98739.11;125774;1093;103030;-75
2021/07/06 05:03:13;;;;;;;21.53;12.13;;;;;;;19.76;64.08;98734.02;125641;1093;103062;-76
2021/07/06 05:05:47;;;;;;;21.67;12.33;;;;;;;19.83;64.28;98730.60;125716;1093;102910;-76
2021/07/06 05:08:16;;;;;;;23.00;12.10;;;;;;;19.87;64.16;98732.75;125688;1093;102994;-75
2021/07/06 05:10:48;;;;;;;21.83;12.17;;;;;;;19.92;64.21;98740.36;125682;1096;102942;-75
2021/07/06 05:13:16;;;;;;;23.30;12.03;;;;;;;19.97;64.51;98729.83;125684;1096;102910;-76
2021/07/06 05:15:45;;;;;;;22.03;12.47;;;;;;;20.00;64.26;98729.47;125674;1096;103157;-76
2021/07/06 05:18:16;;;;;;;23.00;13.13;;;;;;;20.05;64.44;98735.17;125678;1096;103007;-77
2021/07/06 05:20:47;;;;;;;22.40;12.23;;;;;;;20.11;64.49;98739.02;125685;1096;102981;-76
2021/07/06 05:23:15;;;;;;;22.53;13.00;;;;;;;20.15;64.29;98740.34;125715;1096;103040;-77
2021/07/06 05:25:44;;;;;;;25.07;12.77;;;;;;;20.19;64.32;98735.41;125676;1093;102937;-75
2021/07/06 05:28:12;;;;;;;20.23;12.00;;;;;;;20.26;64.44;98743.61;125674;1097;102937;-76
2021/07/06 05:30:41;;;;;;;23.23;12.77;;;;;;;20.30;64.33;98740.38;125663;1097;103012;-75
2021/07/06 05:33:12;;;;;;;23.70;12.67;;;;;;;20.35;64.42;98731.72;125693;1095;102995;-76
2021/07/06 05:35:40;;;;;;;21.33;12.63;;;;;;;20.42;64.46;98739.91;125697;1095;102998;-79
2021/07/06 05:38:09;;;;;;;22.60;12.77;;;;;;;20.46;64.38;98743.92;125721;1096;102921;-77
2021/07/06 05:40:57;;;;;;;22.63;12.57;;;;;;;20.52;64.32;98743.20;125652;1095;103014;-77
2021/07/06 05:43:31;;;;;;;22.33;11.87;;;;;;;20.60;64.45;98747.67;125689;1096;103019;-76
2021/07/06 05:46:02;;;;;;;22.63;12.10;;;;;;;20.69;64.34;98743.87;125660;1096;102948;-76
2021/07/06 05:48:31;;;;;;;21.40;12.90;;;;;;;20.80;64.45;98746.15;125675;1096;103023;-75
2021/07/06 05:51:02;;;;;;;21.43;11.73;;;;;;;20.93;64.40;98752.78;125687;1096;103096;-79
2021/07/06 05:53:30;;;;;;;20.90;12.03;;;;;;;21.03;64.66;98747.91;125698;1093;103304;-77
2021/07/06 05:56:02;;;;;;;23.27;13.07;;;;;;;21.15;64.40;98752.84;125723;1096;102913;-79
2021/07/06 05:58:30;;;;;;;20.90;12.13;;;;;;;21.23;64.28;98758.16;125699;1096;102922;-77
2021/07/06 06:00:58;;;;;;;21.87;12.87;;;;;;;21.32;64.28;98756.17;125682;1097;103035;-76
2021/07/06 06:03:29;;;;;;;23.00;12.27;;;;;;;21.36;64.72;98754.77;125715;1096;103020;-77
2021/07/06 06:05:58;;;;;;;23.47;13.03;;;;;;;21.42;64.16;98757.55;125700;1097;103291;-76
2021/07/06 06:08:26;;;;;;;21.13;12.17;;;;;;;21.51;64.44;98766.41;125712;1097;102997;-79
2021/07/06 06:10:54;;;;;;;20.70;11.33;;;;;;;21.59;64.33;98770.05;125691;1096;102991;-75
2021/07/06 06:13:23;;;;;;;22.03;12.50;;;;;;;21.68;64.26;98771.61;125677;1096;103014;-76
2021/07/06 06:15:51;;;;;;;21.90;12.47;;;;;;;21.77;64.58;98775.06;125681;1096;102922;-76
2021/07/06 06:18:22;;;;;;;25.10;13.03;;;;;;;21.89;64.61;98773.50;125694;1095;102937;-76
2021/07/06 06:20:50;;;;;;;22.85;12.10;;;;;;;22.03;64.59;98770.94;125708;1097;103404;-77
2021/07/06 06:23:21;;;;;;;23.27;12.73;;;;;;;22.15;64.57;98769.40;125680;1096;103406;-76
2021/07/06 06:25:50;;;;;;;20.93;11.93;;;;;;;22.28;64.11;98761.37;125734;1096;103002;-76
2021/07/06 06:28:18;;;;;;;19.53;11.57;;;;;;;22.43;64.12;98763.16;125718;1096;103159;-76
2021/07/06 06:30:46;;;;;;;21.77;12.03;;;;;;;22.56;63.98;98766.02;125672;1096;103033;-75
2021/07/06 06:33:15;;;;;;;21.80;11.90;;;;;;;22.66;64.29;98754.82;125713;1096;103065;-75
2021/07/06 06:35:43;;;;;;;22.03;12.43;;;;;;;22.79;64.55;98751.36;125677;1096;103470;-76
2021/07/06 06:38:16;;;;;;;23.97;12.10;;;;;;;22.93;63.95;98762.30;125680;1095;103026;-76
2021/07/06 06:40:48;;;;;;;20.70;11.80;;;;;;;23.05;64.10;98747.96;125668;1093;103029;-76
2021/07/06 06:43:16;;;;;;;21.65;11.80;;;;;;;23.18;64.40;98751.79;125653;1096;103068;-76
2021/07/06 06:45:46;;;;;;;22.93;13.17;;;;;;;23.32;63.90;98753.53;125668;1093;103009;-76
2021/07/06 06:48:16;;;;;;;28.10;13.20;;;;;;;23.47;64.13;98747.95;125630;1093;103610;-77
2021/07/06 06:50:48;;;;;;;21.30;12.10;;;;;;;23.63;64.05;98748.63;125688;1093;103009;-77
2021/07/06 06:53:16;;;;;;;23.33;12.07;;;;;;;23.79;63.39;98752.84;125615;1092;103108;-77
2021/07/06 06:55:46;;;;;;;22.47;11.70;;;;;;;23.97;63.57;98748.71;125596;1093;103094;-76
2021/07/06 06:58:15;;;;;;;21.27;11.63;;;;;;;24.15;63.89;98759.83;125673;1093;102947;-76
2021/07/06 07:00:43;;;;;;;20.03;11.30;;;;;;;24.34;64.08;98752.72;125670;1094;103012;-77
2021/07/06 07:03:15;;;;;;;20.33;11.13;;;;;;;24.63;63.95;98769.67;125657;1093;103031;-76
2021/07/06 07:05:43;;;;;;;18.03;10.87;;;;;;;25.07;63.52;98763.73;125702;1093;103023;-76
2021/07/06 07:08:12;;;;;;;21.07;10.57;;;;;;;26.15;62.52;98769.53;125636;1093;103645;-77
2021/07/06 07:10:43;;;;;;;18.50;10.37;;;;;;;27.38;61.81;98762.72;125666;1093;102936;-77
2021/07/06 07:13:12;;;;;;;23.03;11.20;;;;;;;28.65;61.48;98763.59;125597;1093;103062;-76
2021/07/06 07:15:43;;;;;;;19.23;10.10;;;;;;;29.76;61.30;98766.50;125688;1093;102913;-77
2021/07/06 07:18:14;;;;;;;16.80;8.93;;;;;;;30.81;61.31;98767.20;125654;1093;102929;-76
2021/07/06 07:20:46;;;;;;;20.23;9.33;;;;;;;31.99;61.37;98759.61;125640;1093;103004;-73
2021/07/06 07:23:15;;;;;;;17.13;9.17;;;;;;;33.11;61.04;98762.66;125663;1092;103154;-77
2021/07/06 07:25:43;;;;;;;17.90;9.93;;;;;;;33.92;60.75;98770.70;125626;1092;103033;-80
2021/07/06 07:28:11;;;;;;;16.10;8.95;;;;;;;34.67;60.09;98761.05;125703;1092;103158;-77
2021/07/06 07:30:40;;;;;;;16.13;8.70;;;;;;;35.51;60.42;98770.78;125632;1093;102913;-76
2021/07/06 07:33:12;;;;;;;17.63;8.53;;;;;;;36.28;59.47;98770.30;125689;1093;102936;-77
2021/07/06 07:35:40;;;;;;;19.03;9.63;;;;;;;37.03;58.94;98771.02;125685;1093;102973;-77
2021/07/06 07:38:12;;;;;;;16.07;8.80;;;;;;;37.26;57.99;98774.09;125706;1092;103515;-77
2021/07/06 07:40:43;;;;;;;28.25;21.93;;;;;;;37.65;58.11;98773.05;125674;1094;103033;-77
2021/07/06 07:43:12;;;;;;;18.58;9.33;;;;;;;38.07;57.50;98766.92;125692;1093;102909;-78
2021/07/06 07:45:40;;;;;;;14.93;8.30;;;;;;;38.26;56.50;98764.92;125673;1093;102935;-76
2021/07/06 07:48:08;;;;;;;15.03;8.80;;;;;;;38.71;55.75;98770.02;125721;1092;103090;-77
2021/07/06 07:50:37;;;;;;;15.10;8.50;;;;;;;38.62;54.92;98779.34;125649;1093;102930;-77
2021/07/06 07:53:05;;;;;;;17.33;9.70;;;;;;;38.14;54.05;98775.66;125644;1093;103386;-77
2021/07/06 07:55:33;;;;;;;14.97;7.80;;;;;;;38.23;53.81;98775.82;125661;1092;103039;-76
2021/07/06 07:58:02;;;;;;;14.27;7.90;;;;;;;38.56;53.34;98773.06;125646;1093;101728;-76
2021/07/06 08:00:34;;;;;;;12.57;7.67;;;;;;;39.08;52.77;98777.69;125753;1093;103009;-77
2021/07/06 08:03:04;;;;;;;13.23;7.57;;;;;;;39.64;52.22;98780.42;125747;1093;103026;-77
2021/07/06 08:05:32;;;;;;;18.47;7.60;;;;;;;39.98;51.88;98781.89;125712;1093;103031;-78
2021/07/06 08:08:01;;;;;;;15.37;7.43;;;;;;;40.44;51.25;98779.98;125642;1093;102916;-78
2021/07/06 08:10:29;;;;;;;11.50;7.07;;;;;;;41.02;50.99;98782.91;125629;1093;103384;-77
2021/07/06 08:12:58;;;;;;;14.00;7.17;;;;;;;41.17;50.21;98782.51;125686;1092;102998;-77
2021/07/06 08:15:26;;;;;;;17.23;7.80;;;;;;;41.57;49.91;98784.45;125613;1092;103087;-76
2021/07/06 08:17:55;;;;;;;14.00;7.33;;;;;;;41.95;49.57;98780.19;125662;1092;103006;-77
2021/07/06 08:20:23;;;;;;;15.70;8.13;;;;;;;41.94;48.47;98781.34;125683;1092;102948;-76
2021/07/06 08:22:55;;;;;;;12.83;7.07;;;;;;;41.71;48.25;98786.25;125643;1093;102972;-78
2021/07/06 08:25:25;;;;;;;13.53;7.17;;;;;;;41.81;47.48;98777.56;125659;1093;103028;-77
2021/07/06 08:27:54;;;;;;;26.07;17.87;;;;;;;41.74;46.97;98780.02;125631;1093;102938;-77
2021/07/06 08:30:27;;;;;;;21.00;7.90;;;;;;;41.59;45.82;98786.91;125706;1093;102912;-77
2021/07/06 08:32:55;;;;;;;14.27;7.23;;;;;;;41.48;46.53;98781.59;125653;1095;102995;-77
2021/07/06 08:35:28;;;;;;;12.80;7.23;;;;;;;41.45;44.92;98785.03;125663;1095;103099;-77
2021/07/06 08:37:59;;;;;;;15.50;7.47;;;;;;;40.77;43.85;98791.66;125717;1093;103341;-77
2021/07/06 08:40:28;;;;;;;13.17;7.20;;;;;;;40.71;44.16;98789.34;125689;1096;103010;-77
2021/07/06 08:43:04;;;;;;;16.37;7.23;;;;;;;40.63;44.00;98788.13;125691;1095;103122;-77
2021/07/06 08:45:36;;;;;;;13.17;7.23;;;;;;;40.56;43.33;98785.77;125679;1093;103006;-77
2021/07/06 08:48:10;;;;;;;13.27;7.23;;;;;;;41.03;43.63;98784.55;125620;1093;103158;-77
2021/07/06 08:50:39;;;;;;;14.70;7.23;;;;;;;41.24;42.99;98789.59;125827;1093;102935;-73
2021/07/06 08:53:08;;;;;;;14.27;7.13;;;;;;;41.49;42.42;98791.61;125681;1093;103017;-78
2021/07/06 08:55:36;;;;;;;13.30;6.77;;;;;;;41.29;41.64;98789.44;125652;1093;103009;-78
2021/07/06 08:58:04;;;;;;;12.87;7.17;;;;;;;40.91;41.88;98791.58;125675;1093;104460;-77
2021/07/06 09:00:33;;;;;;;14.53;7.20;;;;;;;40.70;40.96;98787.69;125587;1096;102913;-77
2021/07/06 09:03:09;;;;;;;13.63;6.70;;;;;;;40.09;40.49;98788.06;125629;1092;103099;-77
2021/07/06 09:05:38;;;;;;;13.33;6.97;;;;;;;39.97;40.85;98799.73;125600;1093;103020;-69
2021/07/06 09:08:09;;;;;;;17.37;7.70;;;;;;;39.99;40.01;98789.95;125616;1093;103009;-72
2021/07/06 09:10:41;;;;;;;14.17;7.73;;;;;;;39.47;39.66;98793.05;125686;1093;102982;-72
2021/07/06 09:13:27;;;;;;;12.37;6.93;;;;;;;39.12;39.41;98792.63;125578;1093;103004;-73
2021/07/06 09:15:57;;;;;;;13.13;7.27;;;;;;;39.04;39.21;98794.14;125602;1093;102995;-69
2021/07/06 09:18:31;;;;;;;12.53;7.07;;;;;;;38.91;38.79;98797.77;125571;1093;102937;-68
2021/07/06 09:21:08;;;;;;;9.67;6.67;;;;;;;38.81;38.95;98788.44;125593;1092;102997;-67
2021/07/06 09:23:45;;;;;;;14.90;7.83;;;;;;;38.79;38.78;98793.48;126004;1093;102938;-71
2021/07/06 09:26:22;;;;;;;13.00;7.00;;;;;;;38.79;38.69;98785.14;125600;1092;103035;-67
2021/07/06 09:28:52;;;;;;;14.87;7.60;;;;;;;38.46;38.31;98787.13;125585;1093;103044;-69
2021/07/06 09:31:31;;;;;;;13.30;7.10;;;;;;;37.89;37.07;98790.76;125557;1093;102942;-71
2021/07/06 09:34:03;;;;;;;11.33;6.70;;;;;;;37.44;37.27;98789.14;125625;1093;102935;-77
2021/07/06 09:36:39;;;;;;;11.98;6.70;;;;;;;36.95;36.80;98779.94;125634;1093;102935;-68
2021/07/06 09:39:25;;;;;;;13.27;6.30;;;;;;;36.45;36.77;98780.97;125621;1092;102922;-76
2021/07/06 09:42:11;;;;;;;13.97;6.93;;;;;;;36.37;37.18;98781.59;125679;1092;102988;-74
2021/07/06 09:44:41;;;;;;;11.33;6.63;;;;;;;36.54;36.51;98785.89;125681;1093;102927;-74
2021/07/06 09:47:12;;;;;;;15.00;6.40;;;;;;;36.17;35.97;98780.63;125750;1093;102995;-74
2021/07/06 09:49:53;;;;;;;12.93;6.93;;;;;;;35.69;36.07;98786.73;125702;1093;103005;-74
2021/07/06 09:52:22;;;;;;;12.15;6.88;;;;;;;35.23;35.96;98786.91;125763;1093;103000;-73
2021/07/06 09:54:54;;;;;;;14.80;7.33;;;;;;;35.04;35.82;98787.54;125684;1092;102938;-73
2021/07/06 09:57:31;;;;;;;12.93;7.27;;;;;;;34.81;35.85;98775.95;125637;1092;103058;-72
2021/07/06 10:00:07;;;;;;;11.80;6.53;;;;;;;34.85;36.00;98790.02;125672;1092;103084;-78
2021/07/06 10:02:37;;;;;;;15.77;7.37;;;;;;;34.67;36.00;98785.90;125688;1093;103061;-74
2021/07/06 10:05:10;;;;;;;13.63;7.20;;;;;;;34.52;36.06;98787.59;125698;1093;102913;-74
2021/07/06 10:07:39;;;;;;;13.00;7.07;;;;;;;34.58;35.68;98774.59;125703;1096;102982;-75
2021/07/06 10:10:12;;;;;;;13.33;7.00;;;;;;;34.48;35.29;98782.88;125624;1092;102995;-72
2021/07/06 10:12:46;;;;;;;11.60;7.27;;;;;;;34.10;35.25;98778.43;125636;1093;103045;-74
2021/07/06 10:15:20;;;;;;;14.70;7.77;;;;;;;33.67;35.70;98780.52;125674;1093;103009;-74
2021/07/06 10:17:51;;;;;;;13.63;7.13;;;;;;;33.61;35.78;98776.94;125639;1094;103087;-72
2021/07/06 10:20:25;;;;;;;14.73;7.50;;;;;;;33.59;35.85;98773.61;125700;1093;103380;-73
2021/07/06 10:22:57;;;;;;;12.20;7.63;;;;;;;33.57;35.82;98775.81;125628;1093;102916;-72
2021/07/06 10:25:29;;;;;;;14.05;7.35;;;;;;;33.38;35.80;98767.20;125657;1093;102907;-73
2021/07/06 10:28:04;;;;;;;13.98;7.53;;;;;;;33.15;35.52;98779.47;125672;1091;102935;-74
2021/07/06 10:30:44;;;;;;;24.03;8.20;;;;;;;32.88;35.33;98772.17;125637;1093;103057;-71
2021/07/06 10:33:31;;;;;;;14.23;7.50;;;;;;;32.52;35.20;98769.97;125676;1093;103068;-72
2021/07/06 10:36:02;;;;;;;12.83;7.03;;;;;;;32.17;35.33;98779.56;125662;1093;102916;-74
2021/07/06 10:38:33;;;;;;;13.37;7.57;;;;;;;31.95;35.49;98774.97;125631;1094;103065;-73
2021/07/06 10:41:09;;;;;;;13.37;7.50;;;;;;;31.77;35.43;98776.16;125666;1093;103012;-73
2021/07/06 10:43:37;;;;;;;13.50;7.43;;;;;;;31.65;35.34;98770.76;125653;1092;103077;-73
2021/07/06 10:46:20;;;;;;;14.17;7.47;;;;;;;31.66;35.56;98774.35;125701;1092;102910;-72
2021/07/06 10:49:11;;;;;;;16.70;8.03;;;;;;;31.60;35.78;98770.70;125646;1092;103342;-74
2021/07/06 10:51:40;;;;;;;12.93;6.50;;;;;;;31.61;35.60;98769.61;125682;1093;103545;-73
2021/07/06 10:54:08;;;;;;;11.30;6.97;;;;;;;31.57;35.54;98772.05;125665;1093;103065;-73
2021/07/06 10:56:43;;;;;;;13.67;7.37;;;;;;;31.44;35.75;98776.03;125641;1093;103061;-73
2021/07/06 10:59:35;;;;;;;13.55;7.00;;;;;;;31.29;35.24;98778.58;125664;1093;102913;-73
2021/07/06 11:02:13;;;;;;;13.30;7.23;;;;;;;31.22;35.81;98781.52;125669;1093;103418;-73
2021/07/06 11:04:51;;;;;;;12.50;6.97;;;;;;;31.14;35.41;98780.03;125685;1093;102909;-74
2021/07/06 11:07:28;;;;;;;12.00;6.43;;;;;;;31.02;35.33;98779.30;125673;1093;103058;-75
2021/07/06 11:09:57;;;;;;;14.40;7.00;;;;;;;30.83;35.41;98776.02;125677;1093;102916;-73
2021/07/06 11:12:26;;;;;;;12.37;6.80;;;;;;;30.76;35.61;98780.84;125669;1093;103000;-73
2021/07/06 11:15:05;;;;;;;14.20;7.40;;;;;;;30.71;35.97;98776.94;125677;1093;103003;-73
2021/07/06 11:17:38;;;;;;;16.73;7.13;;;;;;;30.79;35.78;98770.18;125691;1093;103113;-73
2021/07/06 11:20:17;;;;;;;16.13;7.00;;;;;;;30.97;35.93;98777.33;125699;1093;102929;-72